sensor_id;sensor_type;location;lat;lon;timestamp;P1;durP1;ratioP1;P2;durP2;ratioP2
8893;SDS011;4483;48.622;9.230;2024-01-30T00:01:51;5.03;;;3.97;;
8893;SDS011;4483;48.622;9.230;2024-01-30T00:04:19;8.60;;;4.53;;
8893;SDS011;4483;48.622;9.230;2024-01-30T00:06:45;6.87;;;4.57;;
8893;SDS011;4483;48.622;9.230;2024-01-30T00:09:12;8.80;;;4.57;;
8893;SDS011;4483;48.622;9.230;2024-01-30T00:11:39;5.97;;;4.60;;
8893;SDS011;4483;48.622;9.230;2024-01-30T00:14:05;4.93;;;4.27;;
8893;SDS011;4483;48.622;9.230;2024-01-30T00:16:32;9.10;;;4.43;;
8893;SDS011;4483;48.622;9.230;2024-01-30T00:18:59;4.67;;;4.00;;
8893;SDS011;4483;48.622;9.230;2024-01-30T00:21:28;6.13;;;4.33;;
8893;SDS011;4483;48.622;9.230;2024-01-30T00:23:55;6.87;;;4.30;;
8893;SDS011;4483;48.622;9.230;2024-01-30T00:26:22;6.43;;;4.03;;
8893;SDS011;4483;48.622;9.230;2024-01-30T00:28:48;6.03;;;4.10;;
8893;SDS011;4483;48.622;9.230;2024-01-30T00:31:15;5.73;;;4.63;;
8893;SDS011;4483;48.622;9.230;2024-01-30T00:33:42;6.10;;;4.30;;
8893;SDS011;4483;48.622;9.230;2024-01-30T00:36:09;8.03;;;4.33;;
8893;SDS011;4483;48.622;9.230;2024-01-30T00:38:37;6.20;;;4.07;;
8893;SDS011;4483;48.622;9.230;2024-01-30T00:41:05;5.90;;;4.20;;
8893;SDS011;4483;48.622;9.230;2024-01-30T00:43:34;5.87;;;4.77;;
8893;SDS011;4483;48.622;9.230;2024-01-30T00:46:00;4.87;;;4.37;;
8893;SDS011;4483;48.622;9.230;2024-01-30T00:48:28;5.17;;;4.40;;
8893;SDS011;4483;48.622;9.230;2024-01-30T00:50:54;6.13;;;4.70;;
8893;SDS011;4483;48.622;9.230;2024-01-30T00:53:21;7.07;;;4.37;;
8893;SDS011;4483;48.622;9.230;2024-01-30T00:55:49;7.37;;;4.60;;
8893;SDS011;4483;48.622;9.230;2024-01-30T00:58:16;7.53;;;4.80;;
8893;SDS011;4483;48.622;9.230;2024-01-30T01:00:44;6.10;;;5.00;;
8893;SDS011;4483;48.622;9.230;2024-01-30T01:03:10;4.90;;;4.40;;
8893;SDS011;4483;48.622;9.230;2024-01-30T01:05:39;5.80;;;3.83;;
8893;SDS011;4483;48.622;9.230;2024-01-30T01:08:06;9.43;;;4.60;;
8893;SDS011;4483;48.622;9.230;2024-01-30T01:10:34;9.40;;;4.40;;
8893;SDS011;4483;48.622;9.230;2024-01-30T01:13:02;8.37;;;4.13;;
8893;SDS011;4483;48.622;9.230;2024-01-30T01:15:28;6.57;;;4.13;;
8893;SDS011;4483;48.622;9.230;2024-01-30T01:17:55;4.57;;;3.90;;
8893;SDS011;4483;48.622;9.230;2024-01-30T01:20:22;4.53;;;4.13;;
8893;SDS011;4483;48.622;9.230;2024-01-30T01:22:48;5.90;;;3.90;;
8893;SDS011;4483;48.622;9.230;2024-01-30T01:25:15;11.37;;;6.37;;
8893;SDS011;4483;48.622;9.230;2024-01-30T01:27:41;9.53;;;5.73;;
8893;SDS011;4483;48.622;9.230;2024-01-30T01:30:11;5.43;;;4.40;;
8893;SDS011;4483;48.622;9.230;2024-01-30T01:32:44;5.50;;;4.63;;
8893;SDS011;4483;48.622;9.230;2024-01-30T01:35:15;7.27;;;4.30;;
8893;SDS011;4483;48.622;9.230;2024-01-30T01:37:42;8.90;;;4.30;;
8893;SDS011;4483;48.622;9.230;2024-01-30T01:40:09;7.77;;;4.87;;
8893;SDS011;4483;48.622;9.230;2024-01-30T01:42:36;5.60;;;4.40;;
8893;SDS011;4483;48.622;9.230;2024-01-30T01:45:03;9.53;;;4.30;;
8893;SDS011;4483;48.622;9.230;2024-01-30T01:47:32;6.13;;;4.63;;
8893;SDS011;4483;48.622;9.230;2024-01-30T01:49:58;5.37;;;4.30;;
8893;SDS011;4483;48.622;9.230;2024-01-30T01:52:25;5.50;;;4.33;;
8893;SDS011;4483;48.622;9.230;2024-01-30T01:54:52;8.00;;;4.77;;
8893;SDS011;4483;48.622;9.230;2024-01-30T01:57:18;5.33;;;4.50;;
8893;SDS011;4483;48.622;9.230;2024-01-30T01:59:46;5.67;;;4.30;;
8893;SDS011;4483;48.622;9.230;2024-01-30T02:02:13;7.67;;;4.40;;
8893;SDS011;4483;48.622;9.230;2024-01-30T02:04:45;6.60;;;4.43;;
8893;SDS011;4483;48.622;9.230;2024-01-30T02:07:11;6.27;;;4.47;;
8893;SDS011;4483;48.622;9.230;2024-01-30T02:09:38;7.97;;;4.23;;
8893;SDS011;4483;48.622;9.230;2024-01-30T02:12:05;6.90;;;4.03;;
8893;SDS011;4483;48.622;9.230;2024-01-30T02:14:32;5.23;;;3.87;;
8893;SDS011;4483;48.622;9.230;2024-01-30T02:16:59;7.00;;;4.33;;
8893;SDS011;4483;48.622;9.230;2024-01-30T02:19:26;4.67;;;4.10;;
8893;SDS011;4483;48.622;9.230;2024-01-30T02:21:54;5.43;;;3.77;;
8893;SDS011;4483;48.622;9.230;2024-01-30T02:24:20;7.07;;;4.37;;
8893;SDS011;4483;48.622;9.230;2024-01-30T02:26:47;6.97;;;4.13;;
8893;SDS011;4483;48.622;9.230;2024-01-30T02:29:14;4.20;;;3.80;;
8893;SDS011;4483;48.622;9.230;2024-01-30T02:31:40;4.73;;;4.23;;
8893;SDS011;4483;48.622;9.230;2024-01-30T02:34:07;6.97;;;4.17;;
8893;SDS011;4483;48.622;9.230;2024-01-30T02:36:34;5.43;;;4.17;;
8893;SDS011;4483;48.622;9.230;2024-01-30T02:39:02;7.63;;;4.47;;
8893;SDS011;4483;48.622;9.230;2024-01-30T02:41:28;5.93;;;3.90;;
8893;SDS011;4483;48.622;9.230;2024-01-30T02:43:55;8.53;;;4.80;;
8893;SDS011;4483;48.622;9.230;2024-01-30T02:46:22;5.73;;;4.27;;
8893;SDS011;4483;48.622;9.230;2024-01-30T02:48:48;5.70;;;4.53;;
8893;SDS011;4483;48.622;9.230;2024-01-30T02:51:15;8.97;;;4.57;;
8893;SDS011;4483;48.622;9.230;2024-01-30T02:53:41;5.07;;;4.03;;
8893;SDS011;4483;48.622;9.230;2024-01-30T02:56:09;5.10;;;3.90;;
8893;SDS011;4483;48.622;9.230;2024-01-30T02:58:37;11.73;;;4.07;;
8893;SDS011;4483;48.622;9.230;2024-01-30T03:01:03;6.40;;;4.40;;
8893;SDS011;4483;48.622;9.230;2024-01-30T03:03:30;5.60;;;4.50;;
8893;SDS011;4483;48.622;9.230;2024-01-30T03:05:57;6.13;;;3.73;;
8893;SDS011;4483;48.622;9.230;2024-01-30T03:08:23;7.20;;;4.63;;
8893;SDS011;4483;48.622;9.230;2024-01-30T03:10:50;4.53;;;4.00;;
8893;SDS011;4483;48.622;9.230;2024-01-30T03:13:18;6.43;;;4.50;;
8893;SDS011;4483;48.622;9.230;2024-01-30T03:15:44;7.00;;;4.33;;
8893;SDS011;4483;48.622;9.230;2024-01-30T03:18:11;4.70;;;3.93;;
8893;SDS011;4483;48.622;9.230;2024-01-30T03:20:38;7.13;;;4.23;;
8893;SDS011;4483;48.622;9.230;2024-01-30T03:23:04;8.33;;;4.30;;
8893;SDS011;4483;48.622;9.230;2024-01-30T03:25:31;6.77;;;4.43;;
8893;SDS011;4483;48.622;9.230;2024-01-30T03:27:58;5.23;;;3.90;;
8893;SDS011;4483;48.622;9.230;2024-01-30T03:30:25;7.10;;;4.20;;
8893;SDS011;4483;48.622;9.230;2024-01-30T03:32:52;6.57;;;4.30;;
8893;SDS011;4483;48.622;9.230;2024-01-30T03:35:19;6.30;;;4.13;;
8893;SDS011;4483;48.622;9.230;2024-01-30T03:37:45;6.37;;;4.30;;
8893;SDS011;4483;48.622;9.230;2024-01-30T03:40:12;5.83;;;4.40;;
8893;SDS011;4483;48.622;9.230;2024-01-30T03:42:40;9.73;;;4.73;;
8893;SDS011;4483;48.622;9.230;2024-01-30T03:45:07;4.53;;;4.10;;
8893;SDS011;4483;48.622;9.230;2024-01-30T03:47:35;9.27;;;4.27;;
8893;SDS011;4483;48.622;9.230;2024-01-30T03:50:02;7.87;;;4.50;;
8893;SDS011;4483;48.622;9.230;2024-01-30T03:52:29;7.30;;;4.17;;
8893;SDS011;4483;48.622;9.230;2024-01-30T03:54:56;6.53;;;4.10;;
8893;SDS011;4483;48.622;9.230;2024-01-30T03:57:23;4.77;;;4.27;;
8893;SDS011;4483;48.622;9.230;2024-01-30T03:59:49;5.07;;;3.70;;
8893;SDS011;4483;48.622;9.230;2024-01-30T04:02:16;12.27;;;4.57;;
8893;SDS011;4483;48.622;9.230;2024-01-30T04:04:44;4.53;;;4.13;;
8893;SDS011;4483;48.622;9.230;2024-01-30T04:07:10;5.57;;;4.10;;
8893;SDS011;4483;48.622;9.230;2024-01-30T04:09:38;4.00;;;3.53;;
8893;SDS011;4483;48.622;9.230;2024-01-30T04:12:04;4.57;;;3.90;;
8893;SDS011;4483;48.622;9.230;2024-01-30T04:14:31;5.33;;;4.20;;
8893;SDS011;4483;48.622;9.230;2024-01-30T04:16:58;6.70;;;3.80;;
8893;SDS011;4483;48.622;9.230;2024-01-30T04:19:25;6.80;;;3.93;;
8893;SDS011;4483;48.622;9.230;2024-01-30T04:21:53;4.53;;;3.73;;
8893;SDS011;4483;48.622;9.230;2024-01-30T04:24:19;4.57;;;4.07;;
8893;SDS011;4483;48.622;9.230;2024-01-30T04:26:46;6.50;;;3.90;;
8893;SDS011;4483;48.622;9.230;2024-01-30T04:29:12;5.33;;;4.10;;
8893;SDS011;4483;48.622;9.230;2024-01-30T04:31:39;5.33;;;3.87;;
8893;SDS011;4483;48.622;9.230;2024-01-30T04:34:05;4.87;;;4.03;;
8893;SDS011;4483;48.622;9.230;2024-01-30T04:36:32;5.20;;;4.07;;
8893;SDS011;4483;48.622;9.230;2024-01-30T04:39:00;6.33;;;4.33;;
8893;SDS011;4483;48.622;9.230;2024-01-30T04:41:27;5.10;;;4.27;;
8893;SDS011;4483;48.622;9.230;2024-01-30T04:43:56;8.40;;;4.57;;
8893;SDS011;4483;48.622;9.230;2024-01-30T04:46:23;6.30;;;4.63;;
8893;SDS011;4483;48.622;9.230;2024-01-30T04:48:49;4.50;;;4.03;;
8893;SDS011;4483;48.622;9.230;2024-01-30T04:51:16;4.50;;;3.87;;
8893;SDS011;4483;48.622;9.230;2024-01-30T04:53:42;7.13;;;4.23;;
8893;SDS011;4483;48.622;9.230;2024-01-30T04:56:10;7.37;;;4.03;;
8893;SDS011;4483;48.622;9.230;2024-01-30T04:58:37;7.43;;;4.37;;
8893;SDS011;4483;48.622;9.230;2024-01-30T05:01:04;5.90;;;4.50;;
8893;SDS011;4483;48.622;9.230;2024-01-30T05:03:32;9.93;;;4.37;;
8893;SDS011;4483;48.622;9.230;2024-01-30T05:05:59;8.13;;;4.53;;
8893;SDS011;4483;48.622;9.230;2024-01-30T05:08:26;7.73;;;4.60;;
8893;SDS011;4483;48.622;9.230;2024-01-30T05:10:52;8.33;;;3.73;;
8893;SDS011;4483;48.622;9.230;2024-01-30T05:13:20;7.67;;;4.33;;
8893;SDS011;4483;48.622;9.230;2024-01-30T05:15:47;4.67;;;3.87;;
8893;SDS011;4483;48.622;9.230;2024-01-30T05:18:13;5.60;;;4.00;;
8893;SDS011;4483;48.622;9.230;2024-01-30T05:20:40;7.93;;;3.40;;
8893;SDS011;4483;48.622;9.230;2024-01-30T05:23:07;5.73;;;4.23;;
8893;SDS011;4483;48.622;9.230;2024-01-30T05:25:33;6.50;;;4.10;;
8893;SDS011;4483;48.622;9.230;2024-01-30T05:28:00;7.03;;;4.40;;
8893;SDS011;4483;48.622;9.230;2024-01-30T05:30:28;5.80;;;4.33;;
8893;SDS011;4483;48.622;9.230;2024-01-30T05:32:54;4.90;;;4.17;;
8893;SDS011;4483;48.622;9.230;2024-01-30T05:35:21;7.27;;;3.73;;
8893;SDS011;4483;48.622;9.230;2024-01-30T05:37:48;4.27;;;3.57;;
8893;SDS011;4483;48.622;9.230;2024-01-30T05:40:15;6.37;;;4.70;;
8893;SDS011;4483;48.622;9.230;2024-01-30T05:42:42;7.13;;;4.60;;
8893;SDS011;4483;48.622;9.230;2024-01-30T05:45:09;5.53;;;4.40;;
8893;SDS011;4483;48.622;9.230;2024-01-30T05:47:37;10.17;;;4.83;;
8893;SDS011;4483;48.622;9.230;2024-01-30T05:50:04;7.73;;;4.67;;
8893;SDS011;4483;48.622;9.230;2024-01-30T05:52:31;6.03;;;4.60;;
8893;SDS011;4483;48.622;9.230;2024-01-30T05:54:58;6.47;;;4.77;;
8893;SDS011;4483;48.622;9.230;2024-01-30T05:57:24;8.10;;;5.57;;
8893;SDS011;4483;48.622;9.230;2024-01-30T05:59:50;6.63;;;5.10;;
8893;SDS011;4483;48.622;9.230;2024-01-30T06:02:17;7.50;;;4.67;;
8893;SDS011;4483;48.622;9.230;2024-01-30T06:04:45;6.97;;;4.90;;
8893;SDS011;4483;48.622;9.230;2024-01-30T06:07:12;10.87;;;5.20;;
8893;SDS011;4483;48.622;9.230;2024-01-30T06:09:38;6.67;;;5.13;;
8893;SDS011;4483;48.622;9.230;2024-01-30T06:12:06;7.80;;;4.70;;
8893;SDS011;4483;48.622;9.230;2024-01-30T06:14:32;5.90;;;4.63;;
8893;SDS011;4483;48.622;9.230;2024-01-30T06:16:59;7.33;;;5.20;;
8893;SDS011;4483;48.622;9.230;2024-01-30T06:19:26;5.93;;;4.90;;
8893;SDS011;4483;48.622;9.230;2024-01-30T06:21:54;8.60;;;5.30;;
8893;SDS011;4483;48.622;9.230;2024-01-30T06:24:20;6.47;;;5.23;;
8893;SDS011;4483;48.622;9.230;2024-01-30T06:26:47;5.63;;;4.97;;
8893;SDS011;4483;48.622;9.230;2024-01-30T06:29:13;6.67;;;5.53;;
8893;SDS011;4483;48.622;9.230;2024-01-30T06:31:41;7.30;;;5.07;;
8893;SDS011;4483;48.622;9.230;2024-01-30T06:34:08;7.23;;;5.33;;
8893;SDS011;4483;48.622;9.230;2024-01-30T06:36:36;6.13;;;5.00;;
8893;SDS011;4483;48.622;9.230;2024-01-30T06:39:04;7.57;;;5.13;;
8893;SDS011;4483;48.622;9.230;2024-01-30T06:41:31;6.77;;;4.90;;
8893;SDS011;4483;48.622;9.230;2024-01-30T06:43:58;6.90;;;5.00;;
8893;SDS011;4483;48.622;9.230;2024-01-30T06:46:24;5.60;;;4.33;;
8893;SDS011;4483;48.622;9.230;2024-01-30T06:48:52;7.00;;;4.80;;
8893;SDS011;4483;48.622;9.230;2024-01-30T06:51:19;5.97;;;4.30;;
8893;SDS011;4483;48.622;9.230;2024-01-30T06:53:45;7.20;;;4.63;;
8893;SDS011;4483;48.622;9.230;2024-01-30T06:56:13;5.77;;;4.73;;
8893;SDS011;4483;48.622;9.230;2024-01-30T06:58:40;6.20;;;5.17;;
8893;SDS011;4483;48.622;9.230;2024-01-30T07:01:06;4.93;;;4.43;;
8893;SDS011;4483;48.622;9.230;2024-01-30T07:03:34;5.40;;;4.40;;
8893;SDS011;4483;48.622;9.230;2024-01-30T07:06:00;5.47;;;4.00;;
8893;SDS011;4483;48.622;9.230;2024-01-30T07:08:27;5.43;;;4.50;;
8893;SDS011;4483;48.622;9.230;2024-01-30T07:10:53;8.23;;;4.60;;
8893;SDS011;4483;48.622;9.230;2024-01-30T07:13:22;5.53;;;4.13;;
8893;SDS011;4483;48.622;9.230;2024-01-30T07:15:49;6.07;;;4.57;;
8893;SDS011;4483;48.622;9.230;2024-01-30T07:18:15;6.83;;;4.30;;
8893;SDS011;4483;48.622;9.230;2024-01-30T07:20:42;6.30;;;4.90;;
8893;SDS011;4483;48.622;9.230;2024-01-30T07:23:11;6.10;;;4.47;;
8893;SDS011;4483;48.622;9.230;2024-01-30T07:25:39;5.70;;;4.35;;
8893;SDS011;4483;48.622;9.230;2024-01-30T07:28:06;5.93;;;4.03;;
8893;SDS011;4483;48.622;9.230;2024-01-30T07:30:35;6.03;;;4.60;;
8893;SDS011;4483;48.622;9.230;2024-01-30T07:33:02;5.53;;;4.67;;
8893;SDS011;4483;48.622;9.230;2024-01-30T07:35:29;4.83;;;4.27;;
8893;SDS011;4483;48.622;9.230;2024-01-30T07:37:56;5.93;;;4.07;;
8893;SDS011;4483;48.622;9.230;2024-01-30T07:40:22;6.17;;;4.97;;
8893;SDS011;4483;48.622;9.230;2024-01-30T07:42:49;5.90;;;4.53;;
8893;SDS011;4483;48.622;9.230;2024-01-30T07:45:16;7.83;;;6.10;;
8893;SDS011;4483;48.622;9.230;2024-01-30T07:47:48;9.13;;;6.43;;
8893;SDS011;4483;48.622;9.230;2024-01-30T07:50:15;7.83;;;4.60;;
8893;SDS011;4483;48.622;9.230;2024-01-30T07:52:42;7.13;;;5.60;;
8893;SDS011;4483;48.622;9.230;2024-01-30T07:55:08;8.10;;;5.60;;
8893;SDS011;4483;48.622;9.230;2024-01-30T07:57:35;8.43;;;5.70;;
8893;SDS011;4483;48.622;9.230;2024-01-30T08:00:04;8.87;;;5.60;;
8893;SDS011;4483;48.622;9.230;2024-01-30T08:02:32;8.67;;;5.60;;
8893;SDS011;4483;48.622;9.230;2024-01-30T08:05:00;9.13;;;5.63;;
8893;SDS011;4483;48.622;9.230;2024-01-30T08:07:27;8.67;;;5.17;;
8893;SDS011;4483;48.622;9.230;2024-01-30T08:09:54;8.80;;;5.60;;
8893;SDS011;4483;48.622;9.230;2024-01-30T08:12:21;8.33;;;5.37;;
8893;SDS011;4483;48.622;9.230;2024-01-30T08:14:48;6.70;;;4.53;;
8893;SDS011;4483;48.622;9.230;2024-01-30T08:17:14;9.33;;;5.50;;
8893;SDS011;4483;48.622;9.230;2024-01-30T08:19:41;7.33;;;5.10;;
8893;SDS011;4483;48.622;9.230;2024-01-30T08:22:09;7.57;;;5.53;;
8893;SDS011;4483;48.622;9.230;2024-01-30T08:24:35;10.70;;;5.13;;
8893;SDS011;4483;48.622;9.230;2024-01-30T08:27:02;9.40;;;6.60;;
8893;SDS011;4483;48.622;9.230;2024-01-30T08:29:30;7.60;;;5.40;;
8893;SDS011;4483;48.622;9.230;2024-01-30T08:31:56;8.53;;;5.10;;
8893;SDS011;4483;48.622;9.230;2024-01-30T08:34:24;11.13;;;5.37;;
8893;SDS011;4483;48.622;9.230;2024-01-30T08:36:51;10.33;;;5.67;;
8893;SDS011;4483;48.622;9.230;2024-01-30T08:39:19;9.50;;;5.53;;
8893;SDS011;4483;48.622;9.230;2024-01-30T08:41:45;7.83;;;5.50;;
8893;SDS011;4483;48.622;9.230;2024-01-30T08:44:12;11.10;;;5.03;;
8893;SDS011;4483;48.622;9.230;2024-01-30T08:46:39;7.13;;;4.77;;
8893;SDS011;4483;48.622;9.230;2024-01-30T08:49:05;7.20;;;5.00;;
8893;SDS011;4483;48.622;9.230;2024-01-30T08:51:32;6.40;;;5.00;;
8893;SDS011;4483;48.622;9.230;2024-01-30T08:53:59;6.20;;;4.60;;
8893;SDS011;4483;48.622;9.230;2024-01-30T08:56:27;4.63;;;4.13;;
8893;SDS011;4483;48.622;9.230;2024-01-30T08:58:54;8.10;;;4.90;;
8893;SDS011;4483;48.622;9.230;2024-01-30T09:01:21;7.70;;;4.90;;
8893;SDS011;4483;48.622;9.230;2024-01-30T09:03:47;7.17;;;4.77;;
8893;SDS011;4483;48.622;9.230;2024-01-30T09:06:14;5.93;;;4.60;;
8893;SDS011;4483;48.622;9.230;2024-01-30T09:08:40;6.27;;;4.97;;
8893;SDS011;4483;48.622;9.230;2024-01-30T09:11:11;7.13;;;5.10;;
8893;SDS011;4483;48.622;9.230;2024-01-30T09:13:40;8.40;;;4.87;;
8893;SDS011;4483;48.622;9.230;2024-01-30T09:16:08;7.60;;;5.10;;
8893;SDS011;4483;48.622;9.230;2024-01-30T09:18:35;6.87;;;4.90;;
8893;SDS011;4483;48.622;9.230;2024-01-30T09:21:01;6.00;;;4.63;;
8893;SDS011;4483;48.622;9.230;2024-01-30T09:23:28;7.27;;;4.93;;
8893;SDS011;4483;48.622;9.230;2024-01-30T09:25:55;7.37;;;4.73;;
8893;SDS011;4483;48.622;9.230;2024-01-30T09:28:22;6.97;;;4.70;;
8893;SDS011;4483;48.622;9.230;2024-01-30T09:30:50;4.83;;;4.33;;
8893;SDS011;4483;48.622;9.230;2024-01-30T09:33:16;8.03;;;4.70;;
8893;SDS011;4483;48.622;9.230;2024-01-30T09:35:43;6.03;;;4.60;;
8893;SDS011;4483;48.622;9.230;2024-01-30T09:38:09;7.47;;;4.83;;
8893;SDS011;4483;48.622;9.230;2024-01-30T09:40:36;5.90;;;5.00;;
8893;SDS011;4483;48.622;9.230;2024-01-30T09:43:03;6.80;;;4.77;;
8893;SDS011;4483;48.622;9.230;2024-01-30T09:45:30;6.70;;;5.03;;
8893;SDS011;4483;48.622;9.230;2024-01-30T09:48:00;8.07;;;5.20;;
8893;SDS011;4483;48.622;9.230;2024-01-30T09:50:27;9.37;;;5.40;;
8893;SDS011;4483;48.622;9.230;2024-01-30T09:52:55;6.30;;;5.07;;
8893;SDS011;4483;48.622;9.230;2024-01-30T09:55:23;10.53;;;6.13;;
8893;SDS011;4483;48.622;9.230;2024-01-30T09:57:50;7.53;;;6.27;;
8893;SDS011;4483;48.622;9.230;2024-01-30T10:00:17;6.83;;;6.00;;
8893;SDS011;4483;48.622;9.230;2024-01-30T10:02:44;8.03;;;6.03;;
8893;SDS011;4483;48.622;9.230;2024-01-30T10:05:13;8.70;;;6.47;;
8893;SDS011;4483;48.622;9.230;2024-01-30T10:07:54;7.27;;;5.53;;
8893;SDS011;4483;48.622;9.230;2024-01-30T10:10:23;6.80;;;5.87;;
8893;SDS011;4483;48.622;9.230;2024-01-30T10:12:49;6.23;;;5.50;;
8893;SDS011;4483;48.622;9.230;2024-01-30T10:15:17;6.17;;;5.57;;
8893;SDS011;4483;48.622;9.230;2024-01-30T10:17:44;6.87;;;6.17;;
8893;SDS011;4483;48.622;9.230;2024-01-30T10:20:12;6.97;;;6.10;;
8893;SDS011;4483;48.622;9.230;2024-01-30T10:22:39;9.17;;;6.10;;
8893;SDS011;4483;48.622;9.230;2024-01-30T10:25:07;7.33;;;6.40;;
8893;SDS011;4483;48.622;9.230;2024-01-30T10:27:35;6.53;;;5.50;;
8893;SDS011;4483;48.622;9.230;2024-01-30T10:30:02;6.70;;;5.53;;
8893;SDS011;4483;48.622;9.230;2024-01-30T10:32:29;8.23;;;6.47;;
8893;SDS011;4483;48.622;9.230;2024-01-30T10:34:56;8.20;;;6.57;;
8893;SDS011;4483;48.622;9.230;2024-01-30T10:37:25;8.03;;;5.70;;
8893;SDS011;4483;48.622;9.230;2024-01-30T10:39:52;10.10;;;6.00;;
8893;SDS011;4483;48.622;9.230;2024-01-30T10:42:20;8.33;;;6.27;;
8893;SDS011;4483;48.622;9.230;2024-01-30T10:44:53;14.23;;;6.30;;
8893;SDS011;4483;48.622;9.230;2024-01-30T10:47:26;9.97;;;6.07;;
8893;SDS011;4483;48.622;9.230;2024-01-30T10:49:54;8.90;;;6.63;;
8893;SDS011;4483;48.622;9.230;2024-01-30T10:52:22;6.73;;;6.03;;
8893;SDS011;4483;48.622;9.230;2024-01-30T10:54:53;9.20;;;5.93;;
8893;SDS011;4483;48.622;9.230;2024-01-30T10:57:21;8.07;;;5.73;;
8893;SDS011;4483;48.622;9.230;2024-01-30T10:59:49;10.97;;;5.90;;
8893;SDS011;4483;48.622;9.230;2024-01-30T11:02:19;8.07;;;6.03;;
8893;SDS011;4483;48.622;9.230;2024-01-30T11:04:46;9.03;;;6.10;;
8893;SDS011;4483;48.622;9.230;2024-01-30T11:07:16;9.27;;;6.10;;
8893;SDS011;4483;48.622;9.230;2024-01-30T11:09:50;8.63;;;6.10;;
8893;SDS011;4483;48.622;9.230;2024-01-30T11:12:21;9.73;;;6.80;;
8893;SDS011;4483;48.622;9.230;2024-01-30T11:14:48;13.10;;;9.40;;
8893;SDS011;4483;48.622;9.230;2024-01-30T11:17:15;9.43;;;7.67;;
8893;SDS011;4483;48.622;9.230;2024-01-30T11:19:42;9.17;;;6.80;;
8893;SDS011;4483;48.622;9.230;2024-01-30T11:22:10;13.70;;;6.40;;
8893;SDS011;4483;48.622;9.230;2024-01-30T11:24:39;7.10;;;6.20;;
8893;SDS011;4483;48.622;9.230;2024-01-30T11:27:09;11.27;;;8.77;;
8893;SDS011;4483;48.622;9.230;2024-01-30T11:29:36;11.77;;;9.20;;
8893;SDS011;4483;48.622;9.230;2024-01-30T11:32:03;12.87;;;8.47;;
8893;SDS011;4483;48.622;9.230;2024-01-30T11:34:30;13.80;;;10.00;;
8893;SDS011;4483;48.622;9.230;2024-01-30T11:36:59;11.57;;;6.80;;
8893;SDS011;4483;48.622;9.230;2024-01-30T11:39:29;10.73;;;7.33;;
8893;SDS011;4483;48.622;9.230;2024-01-30T11:41:56;11.47;;;6.47;;
8893;SDS011;4483;48.622;9.230;2024-01-30T11:44:26;10.70;;;7.07;;
8893;SDS011;4483;48.622;9.230;2024-01-30T11:46:52;47.20;;;25.80;;
8893;SDS011;4483;48.622;9.230;2024-01-30T11:49:19;17.63;;;12.47;;
8893;SDS011;4483;48.622;9.230;2024-01-30T11:51:45;12.33;;;11.07;;
8893;SDS011;4483;48.622;9.230;2024-01-30T11:54:13;14.80;;;9.30;;
8893;SDS011;4483;48.622;9.230;2024-01-30T11:56:40;9.30;;;7.37;;
8893;SDS011;4483;48.622;9.230;2024-01-30T11:59:08;8.80;;;7.30;;
8893;SDS011;4483;48.622;9.230;2024-01-30T12:01:36;8.03;;;7.23;;
8893;SDS011;4483;48.622;9.230;2024-01-30T12:04:03;12.23;;;7.43;;
8893;SDS011;4483;48.622;9.230;2024-01-30T12:06:33;12.20;;;10.13;;
8893;SDS011;4483;48.622;9.230;2024-01-30T12:09:00;11.20;;;7.83;;
8893;SDS011;4483;48.622;9.230;2024-01-30T12:11:30;10.80;;;8.10;;
8893;SDS011;4483;48.622;9.230;2024-01-30T12:13:57;12.93;;;7.47;;
8893;SDS011;4483;48.622;9.230;2024-01-30T12:16:24;11.13;;;6.73;;
8893;SDS011;4483;48.622;9.230;2024-01-30T12:19:00;11.63;;;7.00;;
8893;SDS011;4483;48.622;9.230;2024-01-30T12:21:27;10.57;;;7.13;;
8893;SDS011;4483;48.622;9.230;2024-01-30T12:23:54;10.23;;;6.83;;
8893;SDS011;4483;48.622;9.230;2024-01-30T12:26:21;8.87;;;6.70;;
8893;SDS011;4483;48.622;9.230;2024-01-30T12:28:48;8.47;;;7.17;;
8893;SDS011;4483;48.622;9.230;2024-01-30T12:31:15;11.80;;;7.27;;
8893;SDS011;4483;48.622;9.230;2024-01-30T12:33:42;9.37;;;7.00;;
8893;SDS011;4483;48.622;9.230;2024-01-30T12:36:10;8.30;;;7.23;;
8893;SDS011;4483;48.622;9.230;2024-01-30T12:38:37;11.30;;;7.17;;
8893;SDS011;4483;48.622;9.230;2024-01-30T12:41:06;9.50;;;7.00;;
8893;SDS011;4483;48.622;9.230;2024-01-30T12:43:33;9.87;;;6.90;;
8893;SDS011;4483;48.622;9.230;2024-01-30T12:46:00;7.07;;;6.27;;
8893;SDS011;4483;48.622;9.230;2024-01-30T12:48:27;9.20;;;6.47;;
8893;SDS011;4483;48.622;9.230;2024-01-30T12:50:55;12.13;;;6.57;;
8893;SDS011;4483;48.622;9.230;2024-01-30T12:53:23;9.23;;;6.30;;
8893;SDS011;4483;48.622;9.230;2024-01-30T12:55:50;6.67;;;6.00;;
8893;SDS011;4483;48.622;9.230;2024-01-30T12:58:16;6.77;;;6.07;;
8893;SDS011;4483;48.622;9.230;2024-01-30T13:00:42;9.00;;;7.03;;
8893;SDS011;4483;48.622;9.230;2024-01-30T13:03:10;9.97;;;6.73;;
8893;SDS011;4483;48.622;9.230;2024-01-30T13:05:36;8.57;;;6.53;;
8893;SDS011;4483;48.622;9.230;2024-01-30T13:08:03;8.93;;;5.40;;
8893;SDS011;4483;48.622;9.230;2024-01-30T13:10:32;6.43;;;5.83;;
8893;SDS011;4483;48.622;9.230;2024-01-30T13:12:58;12.10;;;6.10;;
8893;SDS011;4483;48.622;9.230;2024-01-30T13:15:25;7.07;;;5.90;;
8893;SDS011;4483;48.622;9.230;2024-01-30T13:17:51;11.80;;;5.90;;
8893;SDS011;4483;48.622;9.230;2024-01-30T13:20:19;9.60;;;6.50;;
8893;SDS011;4483;48.622;9.230;2024-01-30T13:22:47;10.83;;;5.93;;
8893;SDS011;4483;48.622;9.230;2024-01-30T13:25:14;11.10;;;7.33;;
8893;SDS011;4483;48.622;9.230;2024-01-30T13:27:42;7.40;;;6.67;;
8893;SDS011;4483;48.622;9.230;2024-01-30T13:30:08;16.67;;;8.37;;
8893;SDS011;4483;48.622;9.230;2024-01-30T13:32:36;17.50;;;7.43;;
8893;SDS011;4483;48.622;9.230;2024-01-30T13:35:02;13.60;;;7.17;;
8893;SDS011;4483;48.622;9.230;2024-01-30T13:37:29;9.30;;;6.57;;
8893;SDS011;4483;48.622;9.230;2024-01-30T13:39:56;13.63;;;8.20;;
8893;SDS011;4483;48.622;9.230;2024-01-30T13:42:23;10.67;;;7.27;;
8893;SDS011;4483;48.622;9.230;2024-01-30T13:44:51;9.50;;;6.97;;
8893;SDS011;4483;48.622;9.230;2024-01-30T13:47:18;11.17;;;7.17;;
8893;SDS011;4483;48.622;9.230;2024-01-30T13:49:46;8.60;;;6.67;;
8893;SDS011;4483;48.622;9.230;2024-01-30T13:52:13;11.47;;;7.20;;
8893;SDS011;4483;48.622;9.230;2024-01-30T13:54:39;11.60;;;7.27;;
8893;SDS011;4483;48.622;9.230;2024-01-30T13:57:06;13.63;;;8.00;;
8893;SDS011;4483;48.622;9.230;2024-01-30T13:59:33;14.50;;;7.27;;
8893;SDS011;4483;48.622;9.230;2024-01-30T14:02:02;16.60;;;7.90;;
8893;SDS011;4483;48.622;9.230;2024-01-30T14:04:28;11.10;;;8.63;;
8893;SDS011;4483;48.622;9.230;2024-01-30T14:06:55;13.93;;;6.53;;
8893;SDS011;4483;48.622;9.230;2024-01-30T14:09:21;18.40;;;6.67;;
8893;SDS011;4483;48.622;9.230;2024-01-30T14:11:48;19.47;;;6.60;;
8893;SDS011;4483;48.622;9.230;2024-01-30T14:14:15;11.33;;;5.53;;
8893;SDS011;4483;48.622;9.230;2024-01-30T14:16:41;9.40;;;5.87;;
8893;SDS011;4483;48.622;9.230;2024-01-30T14:19:09;8.63;;;5.03;;
8893;SDS011;4483;48.622;9.230;2024-01-30T14:21:36;9.43;;;5.90;;
8893;SDS011;4483;48.622;9.230;2024-01-30T14:24:03;9.93;;;6.10;;
8893;SDS011;4483;48.622;9.230;2024-01-30T14:26:30;8.80;;;5.07;;
8893;SDS011;4483;48.622;9.230;2024-01-30T14:28:57;8.57;;;5.97;;
8893;SDS011;4483;48.622;9.230;2024-01-30T14:31:24;9.93;;;5.13;;
8893;SDS011;4483;48.622;9.230;2024-01-30T14:33:50;7.43;;;5.13;;
8893;SDS011;4483;48.622;9.230;2024-01-30T14:36:18;8.60;;;5.70;;
8893;SDS011;4483;48.622;9.230;2024-01-30T14:38:45;7.70;;;5.30;;
8893;SDS011;4483;48.622;9.230;2024-01-30T14:41:12;7.97;;;5.23;;
8893;SDS011;4483;48.622;9.230;2024-01-30T14:43:38;9.87;;;6.00;;
8893;SDS011;4483;48.622;9.230;2024-01-30T14:46:05;9.10;;;5.00;;
8893;SDS011;4483;48.622;9.230;2024-01-30T14:48:32;6.03;;;4.63;;
8893;SDS011;4483;48.622;9.230;2024-01-30T14:50:59;8.20;;;4.87;;
8893;SDS011;4483;48.622;9.230;2024-01-30T14:53:27;6.37;;;3.73;;
8893;SDS011;4483;48.622;9.230;2024-01-30T14:55:53;8.03;;;4.40;;
8893;SDS011;4483;48.622;9.230;2024-01-30T14:58:20;8.47;;;4.57;;
8893;SDS011;4483;48.622;9.230;2024-01-30T15:00:47;5.70;;;4.27;;
8893;SDS011;4483;48.622;9.230;2024-01-30T15:03:14;7.73;;;4.40;;
8893;SDS011;4483;48.622;9.230;2024-01-30T15:05:40;7.70;;;4.43;;
8893;SDS011;4483;48.622;9.230;2024-01-30T15:08:07;10.27;;;4.83;;
8893;SDS011;4483;48.622;9.230;2024-01-30T15:10:35;7.40;;;4.90;;
8893;SDS011;4483;48.622;9.230;2024-01-30T15:13:01;11.53;;;4.57;;